createdAt,value
2019-02-18T00:02:13.037Z,-82
2019-02-18T00:04:44.996Z,-84
2019-02-18T00:07:16.836Z,-82
2019-02-18T00:09:48.913Z,-82
2019-02-18T00:12:20.764Z,-82
2019-02-18T00:14:52.639Z,-84
2019-02-18T00:17:24.482Z,-84
2019-02-18T00:19:56.390Z,-85
2019-02-18T00:22:28.233Z,-82
2019-02-18T00:25:00.483Z,-82
2019-02-18T00:27:32.375Z,-82
2019-02-18T00:30:04.311Z,-81
2019-02-18T00:32:36.169Z,-83
2019-02-18T00:35:08.045Z,-84
2019-02-18T00:37:39.898Z,-83
2019-02-18T00:40:11.838Z,-82
2019-02-18T00:42:44.164Z,-82
2019-02-18T00:45:16.083Z,-81
2019-02-18T00:47:48.216Z,-81
2019-02-18T00:50:20.189Z,-82
2019-02-18T00:52:52.031Z,-82
2019-02-18T00:55:24.241Z,-82
2019-02-18T00:57:56.081Z,-81
2019-02-18T01:00:28.071Z,-83
2019-02-18T01:02:59.912Z,-82
2019-02-18T01:05:31.806Z,-82
2019-02-18T01:08:03.667Z,-81
2019-02-18T01:10:35.900Z,-85
2019-02-18T01:13:07.752Z,-84
2019-02-18T01:15:39.626Z,-81
2019-02-18T01:18:11.462Z,-81
2019-02-18T01:20:43.345Z,-81
2019-02-18T01:23:15.199Z,-84
2019-02-18T01:25:47.512Z,-82
2019-02-18T01:28:20.584Z,-84
2019-02-18T01:30:52.469Z,-81
2019-02-18T01:33:24.322Z,-84
2019-02-18T01:35:56.221Z,-81
2019-02-18T01:38:28.055Z,-84
2019-02-18T01:41:00.133Z,-83
2019-02-18T01:43:32.479Z,-82
2019-02-18T01:46:04.360Z,-82
2019-02-18T01:48:36.190Z,-82
2019-02-18T01:51:08.067Z,-83
2019-02-18T01:53:39.908Z,-83
2019-02-18T01:56:12.096Z,-83
2019-02-18T01:58:43.950Z,-83
2019-02-18T02:01:15.835Z,-83
2019-02-18T02:03:47.747Z,-83
2019-02-18T02:06:19.632Z,-83
2019-02-18T02:08:51.474Z,-83
2019-02-18T02:11:23.724Z,-83
2019-02-18T02:13:55.565Z,-84
2019-02-18T02:16:27.448Z,-82
2019-02-18T02:18:59.294Z,-82
2019-02-18T02:21:31.242Z,-82
2019-02-18T02:24:03.095Z,-82
2019-02-18T02:26:35.294Z,-82
2019-02-18T02:29:07.139Z,-81
2019-02-18T02:31:39.032Z,-82
2019-02-18T02:34:10.874Z,-81
2019-02-18T02:36:42.763Z,-81
2019-02-18T02:39:14.601Z,-82
2019-02-18T02:41:46.737Z,-81
2019-02-18T02:44:18.718Z,-81
2019-02-18T02:46:50.592Z,-81
2019-02-18T02:49:22.445Z,-80
2019-02-18T02:51:54.339Z,-83
2019-02-18T02:54:26.186Z,-83
2019-02-18T02:56:58.099Z,-82
2019-02-18T02:59:29.999Z,-81
2019-02-18T03:02:01.907Z,-82
2019-02-18T03:04:33.774Z,-81
2019-02-18T03:07:05.704Z,-81
2019-02-18T03:09:37.544Z,-82
2019-02-18T03:12:09.796Z,-82
2019-02-18T03:14:41.759Z,-82
2019-02-18T03:17:13.624Z,-82
2019-02-18T03:19:45.463Z,-84
2019-02-18T03:22:17.363Z,-83
2019-02-18T03:25:32.618Z,-82
2019-02-18T03:28:20.829Z,-81
2019-02-18T03:31:10.042Z,-82
2019-02-18T03:34:00.639Z,-81
2019-02-18T03:36:32.543Z,-82
2019-02-18T03:39:05.401Z,-82
2019-02-18T03:41:37.240Z,-82
2019-02-18T03:44:09.499Z,-82
2019-02-18T03:46:42.135Z,-82
2019-02-18T03:49:14.026Z,-82
2019-02-18T03:51:45.873Z,-81
2019-02-18T03:54:17.753Z,-81
2019-02-18T03:56:49.592Z,-80
2019-02-18T03:59:21.683Z,-82
2019-02-18T04:01:53.536Z,-81
2019-02-18T04:04:25.409Z,-82
2019-02-18T04:06:57.253Z,-82
2019-02-18T04:09:29.111Z,-82
2019-02-18T04:12:00.946Z,-82
2019-02-18T04:14:33.047Z,-82
2019-02-18T04:17:05.187Z,-82
2019-02-18T04:19:37.131Z,-83
2019-02-18T04:22:08.986Z,-82
2019-02-18T04:24:40.873Z,-83
2019-02-18T04:27:12.717Z,-83
2019-02-18T04:29:44.621Z,-82
2019-02-18T04:32:16.474Z,-81
2019-02-18T04:34:48.358Z,-82
2019-02-18T04:37:20.208Z,-82
2019-02-18T04:39:52.084Z,-82
2019-02-18T04:42:23.966Z,-82
2019-02-18T04:44:56.186Z,-81
2019-02-18T04:47:28.453Z,-83
2019-02-18T04:50:00.333Z,-84
2019-02-18T04:52:32.191Z,-82
2019-02-18T04:55:04.288Z,-84
2019-02-18T04:57:36.134Z,-82
2019-02-18T05:00:08.689Z,-81
2019-02-18T05:02:40.588Z,-83
2019-02-18T05:05:12.468Z,-83
2019-02-18T05:07:44.307Z,-80
2019-02-18T05:10:16.184Z,-82
2019-02-18T05:12:48.034Z,-82
2019-02-18T05:15:20.204Z,-82
2019-02-18T05:17:52.122Z,-82
2019-02-18T05:20:24.007Z,-82
2019-02-18T05:22:55.865Z,-81
2019-02-18T05:25:28.689Z,-82
2019-02-18T05:28:00.548Z,-84
2019-02-18T05:30:32.445Z,-84
2019-02-18T05:33:04.302Z,-82
2019-02-18T05:35:36.175Z,-83
2019-02-18T05:38:08.033Z,-83
2019-02-18T05:40:39.928Z,-82
2019-02-18T05:43:11.796Z,-82
2019-02-18T05:45:43.999Z,-82
2019-02-18T05:48:16.588Z,-82
2019-02-18T05:50:48.471Z,-82
2019-02-18T05:53:20.340Z,-82
2019-02-18T05:55:52.244Z,-82
2019-02-18T05:58:24.121Z,-82
2019-02-18T06:00:56.043Z,-82
2019-02-18T06:03:27.890Z,-82
2019-02-18T06:05:59.843Z,-82
2019-02-18T06:08:31.713Z,-81
2019-02-18T06:11:03.592Z,-82
2019-02-18T06:13:35.447Z,-82
2019-02-18T06:16:07.648Z,-83
2019-02-18T06:18:39.504Z,-83
2019-02-18T06:21:11.401Z,-83
2019-02-18T06:23:43.261Z,-83
2019-02-18T06:26:15.151Z,-84
2019-02-18T06:28:47.002Z,-83
2019-02-18T06:31:18.955Z,-83
2019-02-18T06:33:50.812Z,-84
2019-02-18T06:36:23.861Z,-83
2019-02-18T06:38:57.773Z,-82
2019-02-18T06:41:29.851Z,-85
2019-02-18T06:44:01.990Z,-83
2019-02-18T06:46:44.102Z,-84
2019-02-18T06:49:18.892Z,-85
2019-02-18T06:51:50.792Z,-84
2019-02-18T06:54:22.670Z,-85
2019-02-18T06:57:16.527Z,-84
2019-02-18T07:00:00.256Z,-83
2019-02-18T07:02:35.446Z,-80
2019-02-18T07:05:25.475Z,-80
2019-02-18T07:08:12.751Z,-79
2019-02-18T07:10:53.367Z,-80
2019-02-18T07:13:25.235Z,-80
2019-02-18T07:15:57.081Z,-80
2019-02-18T07:18:29.364Z,-80
2019-02-18T07:21:01.229Z,-82
2019-02-18T07:23:33.114Z,-80
2019-02-18T07:26:04.965Z,-79
2019-02-18T07:28:36.826Z,-81
2019-02-18T07:31:08.680Z,-80
2019-02-18T07:33:41.041Z,-80
2019-02-18T07:36:12.904Z,-81
2019-02-18T07:38:44.791Z,-80
2019-02-18T07:41:16.647Z,-82
2019-02-18T07:43:48.520Z,-79
2019-02-18T07:46:20.451Z,-81
2019-02-18T07:48:52.348Z,-81
2019-02-18T07:51:24.780Z,-81
2019-02-18T07:53:56.650Z,-82
2019-02-18T07:56:28.516Z,-82
2019-02-18T07:59:00.384Z,-83
2019-02-18T08:01:32.240Z,-83
2019-02-18T08:04:04.172Z,-81
2019-02-18T08:06:36.013Z,-83
2019-02-18T08:09:08.203Z,-81
2019-02-18T08:11:40.063Z,-83
2019-02-18T08:14:11.951Z,-80
2019-02-18T08:16:43.806Z,-83
2019-02-18T08:19:15.829Z,-81
2019-02-18T08:21:47.654Z,-81
2019-02-18T08:24:19.557Z,-83
2019-02-18T08:26:51.434Z,-82
2019-02-18T08:29:23.298Z,-83
2019-02-18T08:31:55.155Z,-81
2019-02-18T08:34:27.418Z,-83
2019-02-18T08:36:59.291Z,-82
2019-02-18T08:39:31.191Z,-81
2019-02-18T08:42:03.057Z,-81
2019-02-18T08:44:34.951Z,-81
2019-02-18T08:47:06.806Z,-81
2019-02-18T08:49:39.089Z,-81
2019-02-18T08:52:11.345Z,-83
2019-02-18T08:54:43.327Z,-81
2019-02-18T08:57:15.189Z,-81
2019-02-18T08:59:47.075Z,-81
2019-02-18T09:02:18.940Z,-81
2019-02-18T09:04:51.020Z,-82
2019-02-18T09:07:22.889Z,-81
2019-02-18T09:09:54.760Z,-83
2019-02-18T09:12:26.628Z,-83
2019-02-18T09:14:58.503Z,-82
2019-02-18T09:17:30.366Z,-83
2019-02-18T09:20:02.640Z,-83
2019-02-18T09:22:53.510Z,-82
2019-02-18T09:33:26.235Z,-82
2019-02-18T09:35:58.334Z,-82
2019-02-18T09:38:30.480Z,-83
2019-02-18T09:41:02.591Z,-83
2019-02-18T09:43:34.471Z,-83
2019-02-18T09:46:06.936Z,-83
2019-02-18T09:48:38.800Z,-83
2019-02-18T09:51:10.995Z,-83
2019-02-18T09:53:44.186Z,-82
2019-02-18T09:56:16.276Z,-83
2019-02-18T09:58:50.186Z,-83
2019-02-18T10:01:21.942Z,-83
2019-02-18T10:03:53.791Z,-83
2019-02-18T10:06:25.918Z,-83
2019-02-18T10:08:58.241Z,-83
2019-02-18T10:11:30.398Z,-83
2019-02-18T10:14:02.266Z,-83
2019-02-18T10:16:34.099Z,-83
2019-02-18T10:19:06.386Z,-83
2019-02-18T10:21:38.549Z,-83
2019-02-18T10:24:10.615Z,-83
2019-02-18T10:26:42.693Z,-81
2019-02-18T10:29:14.681Z,-83
2019-02-18T10:31:46.590Z,-82
2019-02-18T10:34:18.704Z,-83
2019-02-18T10:36:51.512Z,-82
2019-02-18T10:39:23.389Z,-82
2019-02-18T10:41:55.490Z,-83
2019-02-18T10:44:27.346Z,-82
2019-02-18T10:46:59.180Z,-82
2019-02-18T10:49:31.033Z,-84
2019-02-18T10:52:02.899Z,-81
2019-02-18T10:54:35.291Z,-81
2019-02-18T10:57:07.131Z,-81
2019-02-18T10:59:38.997Z,-83
2019-02-18T11:02:10.825Z,-83
2019-02-18T11:04:42.704Z,-81
2019-02-18T11:07:14.507Z,-81
2019-02-18T11:09:46.676Z,-81
2019-02-18T11:12:19.193Z,-81
2019-02-18T11:14:51.356Z,-80
2019-02-18T11:17:23.294Z,-82
2019-02-18T11:19:55.154Z,-81
2019-02-18T11:22:26.995Z,-83
2019-02-18T11:24:59.139Z,-82
2019-02-18T11:27:31.433Z,-83
2019-02-18T11:30:03.361Z,-83
2019-02-18T11:32:35.469Z,-82
2019-02-18T11:35:07.774Z,-81
2019-02-18T11:37:39.603Z,-81
2019-02-18T11:40:14.324Z,-81
2019-02-18T11:42:46.367Z,-82
2019-02-18T11:45:18.245Z,-83
2019-02-18T11:47:50.342Z,-83
2019-02-18T11:50:22.208Z,-82
2019-02-18T11:52:54.040Z,-84
2019-02-18T11:55:26.411Z,-81
2019-02-18T11:57:58.406Z,-81
2019-02-18T12:00:30.371Z,-81
2019-02-18T12:03:05.585Z,-83
2019-02-18T12:05:35.998Z,-83
2019-02-18T12:08:08.884Z,-83
2019-02-18T12:10:41.533Z,-81
2019-02-18T12:13:13.337Z,-82
2019-02-18T12:15:48.724Z,-81
2019-02-18T12:18:20.589Z,-83
2019-02-18T12:20:55.365Z,-82
2019-02-18T12:23:27.047Z,-81
2019-02-18T12:26:00.186Z,-82
2019-02-18T12:28:32.273Z,-81
2019-02-18T12:31:04.748Z,-82
2019-02-18T12:33:36.928Z,-81
2019-02-18T12:36:09.083Z,-81
2019-02-18T12:38:41.182Z,-81
2019-02-18T12:41:13.637Z,-82
2019-02-18T12:43:46.540Z,-81
2019-02-18T12:46:18.684Z,-81
2019-02-18T12:48:50.510Z,-81
2019-02-18T12:51:22.359Z,-81
2019-02-18T12:54:04.566Z,-81
2019-02-18T12:56:30.095Z,-81
2019-02-18T12:59:02.287Z,-83
2019-02-18T13:01:34.168Z,-81
2019-02-18T13:04:06.028Z,-82
2019-02-18T13:06:38.151Z,-83
2019-02-18T13:09:10.256Z,-82
2019-02-18T13:11:42.843Z,-83
2019-02-18T13:14:14.678Z,-83
2019-02-18T13:16:46.853Z,-82
2019-02-18T13:19:21.256Z,-83
2019-02-18T13:21:54.098Z,-81
2019-02-18T13:24:26.231Z,-82
2019-02-18T13:27:00.200Z,-82
2019-02-18T13:29:32.412Z,-84
2019-02-18T13:32:05.611Z,-83
2019-02-18T13:34:38.015Z,-83
2019-02-18T13:37:10.945Z,-82
2019-02-18T13:39:44.145Z,-83
2019-02-18T13:42:16.876Z,-83
2019-02-18T13:44:49.064Z,-82
2019-02-18T13:47:21.789Z,-83
2019-02-18T13:49:53.752Z,-82
2019-02-18T13:52:25.745Z,-83
2019-02-18T13:54:58.079Z,-83
2019-02-18T13:57:30.587Z,-83
2019-02-18T14:00:03.001Z,-83
2019-02-18T14:02:35.615Z,-84
2019-02-18T14:05:08.140Z,-83
2019-02-18T14:07:40.590Z,-83
2019-02-18T14:10:12.946Z,-83
2019-02-18T14:12:45.189Z,-83
2019-02-18T14:15:17.590Z,-83
2019-02-18T14:17:50.601Z,-82
2019-02-18T14:20:22.649Z,-83
2019-02-18T14:22:55.008Z,-82
2019-02-18T14:25:26.819Z,-82
2019-02-18T14:27:58.997Z,-82
2019-02-18T14:30:31.347Z,-81
2019-02-18T14:33:06.124Z,-82
2019-02-18T14:35:38.245Z,-82
2019-02-18T14:38:10.259Z,-82
2019-02-18T14:40:42.379Z,-82
2019-02-18T14:43:14.911Z,-82
2019-02-18T14:45:47.045Z,-81
2019-02-18T14:48:19.322Z,-81
2019-02-18T14:50:56.832Z,-84
2019-02-18T14:53:26.591Z,-83
2019-02-18T14:55:59.077Z,-82
2019-02-18T14:58:32.577Z,-81
2019-02-18T15:01:05.879Z,-82
2019-02-18T15:03:38.483Z,-82
2019-02-18T15:06:11.474Z,-81
2019-02-18T15:08:43.360Z,-82
2019-02-18T15:11:15.976Z,-82
2019-02-18T15:13:49.229Z,-82
2019-02-18T15:16:21.386Z,-81
2019-02-18T15:18:53.361Z,-82
2019-02-18T15:21:25.768Z,-82
2019-02-18T15:23:57.788Z,-82
2019-02-18T15:26:30.412Z,-82
2019-02-18T15:29:03.110Z,-82
2019-02-18T15:31:36.655Z,-83
2019-02-18T15:34:09.341Z,-83
2019-02-18T15:36:41.739Z,-83
2019-02-18T15:39:13.961Z,-83
2019-02-18T15:41:46.082Z,-83
2019-02-18T15:44:18.818Z,-83
2019-02-18T15:46:52.060Z,-83
2019-02-18T15:49:24.227Z,-83
2019-02-18T15:51:56.076Z,-83
2019-02-18T15:54:28.223Z,-83
2019-02-18T15:57:00.384Z,-83
2019-02-18T15:59:33.242Z,-82
2019-02-18T16:02:05.071Z,-83
2019-02-18T16:04:38.084Z,-82
2019-02-18T16:07:10.846Z,-82
2019-02-18T16:09:44.065Z,-82
2019-02-18T16:12:16.747Z,-82
2019-02-18T16:14:49.065Z,-83
2019-02-18T16:17:21.198Z,-82
2019-02-18T16:19:53.340Z,-83
2019-02-18T16:22:25.888Z,-83
2019-02-18T16:24:58.576Z,-82
2019-02-18T16:27:31.219Z,-82
2019-02-18T16:30:04.167Z,-82
2019-02-18T16:32:36.659Z,-82
2019-02-18T16:35:08.796Z,-82
2019-02-18T16:37:41.580Z,-82
2019-02-18T16:40:16.642Z,-82
2019-02-18T16:42:49.168Z,-81
2019-02-18T16:45:22.894Z,-82
2019-02-18T16:47:55.668Z,-83
2019-02-18T16:50:28.616Z,-82
2019-02-18T16:53:00.747Z,-83
2019-02-18T16:55:34.179Z,-82
2019-02-18T16:58:06.386Z,-82
2019-02-18T17:00:40.151Z,-82
2019-02-18T17:03:12.419Z,-81
2019-02-18T17:05:44.379Z,-82
2019-02-18T17:08:16.811Z,-82
2019-02-18T17:10:49.064Z,-82
2019-02-18T17:13:21.319Z,-82
2019-02-18T17:15:53.901Z,-83
2019-02-18T17:18:26.627Z,-82
2019-02-18T17:21:00.255Z,-82
2019-02-18T17:23:32.405Z,-83
2019-02-18T17:26:04.265Z,-83
2019-02-18T17:28:36.108Z,-83
2019-02-18T17:31:09.043Z,-83
2019-02-18T17:33:41.256Z,-82
2019-02-18T17:36:13.730Z,-81
2019-02-18T17:38:46.289Z,-82
2019-02-18T17:41:18.817Z,-81
2019-02-18T17:43:51.783Z,-82
2019-02-18T17:46:24.949Z,-84
2019-02-18T17:48:57.665Z,-83
2019-02-18T17:51:30.903Z,-82
2019-02-18T17:54:03.082Z,-81
2019-02-18T17:56:35.212Z,-82
2019-02-18T17:59:07.326Z,-81
2019-02-18T18:01:40.302Z,-83
2019-02-18T18:04:12.126Z,-81
2019-02-18T18:06:44.290Z,-82
2019-02-18T18:09:17.169Z,-83
2019-02-18T18:11:49.660Z,-84
2019-02-18T18:14:21.884Z,-84
2019-02-18T18:16:54.532Z,-82
2019-02-18T18:19:26.817Z,-83
2019-02-18T18:21:59.025Z,-79
2019-02-18T18:24:31.633Z,-79
2019-02-18T18:27:03.786Z,-82
2019-02-18T18:29:36.032Z,-80
2019-02-18T18:32:09.019Z,-83
2019-02-18T18:34:41.805Z,-84
2019-02-18T18:37:20.934Z,-83
2019-02-18T18:39:54.712Z,-82
2019-02-18T18:42:27.482Z,-82
2019-02-18T18:45:00.027Z,-84
2019-02-18T18:47:32.230Z,-82
2019-02-18T18:50:04.397Z,-82
2019-02-18T18:52:37.461Z,-82
2019-02-18T18:55:09.594Z,-82
2019-02-18T18:57:41.801Z,-83
2019-02-18T19:00:19.021Z,-84
2019-02-18T19:02:51.526Z,-85
2019-02-18T19:05:23.717Z,-85
2019-02-18T19:07:56.288Z,-83
2019-02-18T19:10:29.077Z,-83
2019-02-18T19:13:01.513Z,-83
2019-02-18T19:15:33.626Z,-85
2019-02-18T19:18:06.906Z,-85
2019-02-18T19:20:39.389Z,-83
2019-02-18T19:23:11.535Z,-83
2019-02-18T19:25:43.207Z,-83
2019-02-18T19:28:16.670Z,-83
2019-02-18T19:30:49.691Z,-83
2019-02-18T19:33:22.450Z,-84
2019-02-18T19:35:54.951Z,-83
2019-02-18T19:38:26.886Z,-84
2019-02-18T19:40:58.700Z,-84
2019-02-18T19:43:31.382Z,-83
2019-02-18T19:46:03.629Z,-85
2019-02-18T19:48:36.182Z,-84
2019-02-18T19:51:09.961Z,-84
2019-02-18T19:53:42.716Z,-83
2019-02-18T19:56:14.840Z,-84
2019-02-18T19:58:47.297Z,-83
2019-02-18T20:01:19.799Z,-83
2019-02-18T20:03:54.102Z,-84
2019-02-18T20:06:25.957Z,-84
2019-02-18T20:08:58.234Z,-83
2019-02-18T20:11:30.645Z,-84
2019-02-18T20:14:03.447Z,-83
2019-02-18T20:16:36.164Z,-84
2019-02-18T20:19:08.456Z,-83
2019-02-18T20:21:43.270Z,-84
2019-02-18T20:24:15.879Z,-84
2019-02-18T20:26:48.592Z,-85
2019-02-18T20:29:20.438Z,-83
2019-02-18T20:31:52.649Z,-84
2019-02-18T20:34:25.475Z,-85
2019-02-18T20:36:57.752Z,-85
2019-02-18T20:39:30.175Z,-84
2019-02-18T20:42:02.576Z,-84
2019-02-18T20:44:35.274Z,-83
2019-02-18T20:47:07.778Z,-84
2019-02-18T20:49:40.014Z,-84
2019-02-18T20:52:11.933Z,-85
2019-02-18T20:54:44.480Z,-85
2019-02-18T20:57:16.703Z,-86
2019-02-18T20:59:49.518Z,-84
2019-02-18T21:02:21.849Z,-83
2019-02-18T21:04:55.727Z,-84
2019-02-18T21:07:27.591Z,-84
2019-02-18T21:10:00.277Z,-86
2019-02-18T21:12:33.671Z,-82
2019-02-18T21:15:09.372Z,-84
2019-02-18T21:17:45.359Z,-86
2019-02-18T21:20:35.550Z,-86
2019-02-18T21:23:08.159Z,-87
2019-02-18T21:25:44.147Z,-87
2019-02-18T21:28:16.270Z,-82
2019-02-18T21:30:48.395Z,-83
2019-02-18T21:33:21.497Z,-85
2019-02-18T21:35:54.408Z,-86
2019-02-18T21:38:26.529Z,-84
2019-02-18T21:41:53.782Z,-85
2019-02-18T21:44:48.371Z,-85
2019-02-18T21:47:21.942Z,-84
2019-02-18T21:50:26.292Z,-84
2019-02-18T21:53:05.962Z,-85
2019-02-18T21:55:38.649Z,-86
2019-02-18T21:58:11.349Z,-86
2019-02-18T22:00:43.871Z,-86
2019-02-18T22:03:17.860Z,-87
2019-02-18T22:05:51.065Z,-85
2019-02-18T22:08:25.722Z,-87
2019-02-18T22:10:58.613Z,-84
2019-02-18T22:13:31.156Z,-85
2019-02-18T22:16:03.335Z,-86
2019-02-18T22:18:37.095Z,-84
2019-02-18T22:21:09.236Z,-86
2019-02-18T22:23:42.809Z,-84
2019-02-18T22:26:15.182Z,-85
2019-02-18T22:28:48.271Z,-87
2019-02-18T22:31:20.820Z,-86
2019-02-18T22:33:53.632Z,-87
2019-02-18T22:36:25.995Z,-87
2019-02-18T22:38:58.413Z,-85
2019-02-18T22:41:30.515Z,-88
2019-02-18T22:44:03.135Z,-87
2019-02-18T22:46:35.768Z,-87
2019-02-18T22:49:07.709Z,-86
2019-02-18T22:51:40.603Z,-88
2019-02-18T22:54:13.811Z,-89
2019-02-18T22:56:49.044Z,-89
2019-02-18T22:59:24.235Z,-88
2019-02-18T23:01:56.161Z,-87
2019-02-18T23:04:28.709Z,-86
2019-02-18T23:07:01.058Z,-85
2019-02-18T23:09:32.964Z,-84
2019-02-18T23:12:04.886Z,-83
2019-02-18T23:14:36.863Z,-84
2019-02-18T23:17:09.243Z,-84
2019-02-18T23:19:41.940Z,-84
2019-02-18T23:22:14.714Z,-84
2019-02-18T23:24:51.379Z,-84
2019-02-18T23:27:23.268Z,-84
2019-02-18T23:29:55.311Z,-84
2019-02-18T23:32:27.491Z,-84
2019-02-18T23:34:59.658Z,-85
2019-02-18T23:37:32.254Z,-84
2019-02-18T23:40:06.889Z,-84
2019-02-18T23:42:39.440Z,-85
2019-02-18T23:45:12.024Z,-86
2019-02-18T23:47:44.399Z,-86
2019-02-18T23:50:16.332Z,-85
2019-02-18T23:52:48.505Z,-83
2019-02-18T23:55:21.634Z,-85
2019-02-18T23:57:53.830Z,-85
